Chignik Lake, Alaska
Current Conditions -  °F | °C
As of 6:16 PM on Monday 20 Oct 2014 (Local Time) from PAJC Reporting Station
Scattered Clouds Scattered Clouds  
Wind Chill: 33°   Ceiling: Unl
Heat Index: 37°   Visibility: 10mi
Dew Point: 27°   Wind: 6mph
Humidity: 65%   Direction: 290°WNW
Pressure: 29.14"   Gusts: NA
Location:  56.26°N, 158.77°W
Report Text: PAJC 210216Z AUTO 29005KT 10SM SCT120 03/M03 A2914 RMK AO1
Loading
Personal Weather Stations






























Interactive Weather Map
Tropical Storm Tracking
New forecast layout! Learn more

10-Day Weather Forecast

Advertisements
Track Severe Weather on mobile